createdAt,value
2018-02-12T00:00:07.229Z,998.73
2018-02-12T00:00:33.337Z,998.73
2018-02-12T00:00:59.435Z,998.78
2018-02-12T00:01:25.531Z,998.77
2018-02-12T00:01:51.635Z,998.75
2018-02-12T00:02:17.730Z,998.78
2018-02-12T00:02:43.827Z,998.78
2018-02-12T00:03:09.932Z,998.78
2018-02-12T00:03:36.027Z,998.75
2018-02-12T00:04:02.126Z,998.75
2018-02-12T00:04:28.225Z,998.7
2018-02-12T00:04:54.325Z,998.74
2018-02-12T00:05:20.426Z,998.73
2018-02-12T00:05:46.529Z,998.73
2018-02-12T00:06:12.631Z,998.75
2018-02-12T00:06:38.727Z,998.76
2018-02-12T00:07:04.822Z,998.71
2018-02-12T00:07:30.926Z,998.74
2018-02-12T00:07:57.021Z,998.71
2018-02-12T00:08:23.125Z,998.7
2018-02-12T00:08:49.225Z,998.75
2018-02-12T00:09:15.317Z,998.72
2018-02-12T00:09:41.440Z,998.7
2018-02-12T00:10:07.537Z,998.76
2018-02-12T00:10:33.641Z,998.76
2018-02-12T00:10:59.737Z,998.72
2018-02-12T00:11:25.834Z,998.78
2018-02-12T00:11:51.934Z,998.79
2018-02-12T00:12:18.047Z,998.83
2018-02-12T00:12:44.150Z,998.81
2018-02-12T00:13:10.244Z,998.82
2018-02-12T00:13:36.348Z,998.85
2018-02-12T00:14:02.451Z,998.87
2018-02-12T00:14:28.549Z,998.84
2018-02-12T00:14:54.646Z,998.89
2018-02-12T00:15:20.749Z,998.85
2018-02-12T00:15:46.843Z,998.9
2018-02-12T00:16:12.944Z,998.91
2018-02-12T00:16:39.046Z,998.93
2018-02-12T00:17:05.164Z,998.87
2018-02-12T00:17:31.259Z,998.91
2018-02-12T00:17:57.360Z,998.91
2018-02-12T00:18:23.458Z,998.94
2018-02-12T00:18:49.578Z,998.94
2018-02-12T00:19:15.683Z,998.97
2018-02-12T00:19:41.779Z,998.97
2018-02-12T00:20:07.887Z,999.02
2018-02-12T00:20:34.003Z,998.98
2018-02-12T00:21:00.095Z,999.02
2018-02-12T00:21:26.196Z,998.98
2018-02-12T00:21:52.293Z,999
2018-02-12T00:22:18.394Z,999.08
2018-02-12T00:22:44.500Z,999.05
2018-02-12T00:23:10.589Z,999.04
2018-02-12T00:23:36.687Z,999.06
2018-02-12T00:24:02.792Z,999.06
2018-02-12T00:24:28.891Z,999.08
2018-02-12T00:24:54.984Z,999.02
2018-02-12T00:25:21.084Z,999.01
2018-02-12T00:25:47.189Z,999.03
2018-02-12T00:26:13.285Z,999.04
2018-02-12T00:26:39.390Z,999
2018-02-12T00:27:05.487Z,999.09
2018-02-12T00:27:31.588Z,999.09
2018-02-12T00:27:57.689Z,999.1
2018-02-12T00:28:23.782Z,999.04
2018-02-12T00:28:49.891Z,999.03
2018-02-12T00:29:15.988Z,999.02
2018-02-12T00:29:42.086Z,999.01
2018-02-12T00:30:08.187Z,998.96
2018-02-12T00:30:34.285Z,998.98
2018-02-12T00:31:00.390Z,999
2018-02-12T00:31:26.489Z,998.97
2018-02-12T00:31:52.588Z,998.97
2018-02-12T00:32:18.691Z,999.02
2018-02-12T00:32:44.795Z,998.99
2018-02-12T00:33:10.887Z,999.05
2018-02-12T00:33:36.992Z,999.05
2018-02-12T00:34:03.084Z,999.06
2018-02-12T00:34:29.186Z,998.99
2018-02-12T00:34:55.289Z,998.98
2018-02-12T00:35:21.387Z,999.03
2018-02-12T00:35:47.481Z,999.04
2018-02-12T00:36:13.600Z,999.01
2018-02-12T00:36:39.695Z,999.02
2018-02-12T00:37:05.797Z,999.06
2018-02-12T00:37:31.898Z,999.02
2018-02-12T00:37:58.011Z,999.03
2018-02-12T00:38:24.110Z,999.05
2018-02-12T00:38:50.214Z,999.09
2018-02-12T00:39:16.312Z,999.11
2018-02-12T00:39:42.415Z,999.1
2018-02-12T00:40:08.520Z,999.07
2018-02-12T00:40:34.617Z,999.04
2018-02-12T00:41:00.713Z,999.07
2018-02-12T00:41:26.813Z,999.07
2018-02-12T00:41:52.917Z,999.1
2018-02-12T00:42:19.023Z,999.12
2018-02-12T00:42:45.123Z,999.09
2018-02-12T00:43:11.224Z,999.12
2018-02-12T00:43:37.323Z,999.15
2018-02-12T00:44:03.424Z,999.18
2018-02-12T00:44:29.524Z,999.14
2018-02-12T00:44:55.630Z,999.18
2018-02-12T00:45:21.728Z,999.22
2018-02-12T00:45:47.828Z,999.18
2018-02-12T00:46:13.929Z,999.21
2018-02-12T00:46:40.032Z,999.16
2018-02-12T00:47:06.134Z,999.15
2018-02-12T00:47:32.230Z,999.16
2018-02-12T00:47:58.326Z,999.14
2018-02-12T00:48:24.423Z,999.2
2018-02-12T00:48:50.520Z,999.16
2018-02-12T00:49:16.625Z,999.2
2018-02-12T00:49:42.728Z,999.16
2018-02-12T00:50:08.832Z,999.17
2018-02-12T00:50:34.935Z,999.22
2018-02-12T00:51:01.028Z,999.23
2018-02-12T00:51:27.132Z,999.2
2018-02-12T00:51:53.230Z,999.22
2018-02-12T00:52:19.331Z,999.19
2018-02-12T00:52:45.435Z,999.26
2018-02-12T00:53:11.530Z,999.24
2018-02-12T00:53:37.631Z,999.19
2018-02-12T00:54:03.734Z,999.17
2018-02-12T00:54:29.827Z,999.21
2018-02-12T00:54:55.928Z,999.15
2018-02-12T00:55:22.032Z,999.16
2018-02-12T00:55:48.135Z,999.19
2018-02-12T00:56:14.236Z,999.14
2018-02-12T00:56:40.336Z,999.2
2018-02-12T00:57:06.433Z,999.17
2018-02-12T00:57:32.537Z,999.15
2018-02-12T00:57:58.665Z,999.2
2018-02-12T00:58:24.765Z,999.23
2018-02-12T00:58:50.870Z,999.22
2018-02-12T00:59:16.981Z,999.22
2018-02-12T00:59:43.082Z,999.28
2018-02-12T01:00:09.184Z,999.24
2018-02-12T01:00:35.282Z,999.26
2018-02-12T01:01:01.384Z,999.26
2018-02-12T01:01:27.480Z,999.27
2018-02-12T01:01:53.582Z,999.26
2018-02-12T01:02:19.681Z,999.25
2018-02-12T01:02:45.781Z,999.24
2018-02-12T01:03:11.900Z,999.23
2018-02-12T01:03:38.004Z,999.24
2018-02-12T01:04:04.096Z,999.27
2018-02-12T01:04:30.220Z,999.32
2018-02-12T01:04:56.317Z,999.32
2018-02-12T01:05:22.418Z,999.31
2018-02-12T01:05:48.515Z,999.29
2018-02-12T01:06:14.617Z,999.31
2018-02-12T01:06:40.717Z,999.36
2018-02-12T01:07:06.826Z,999.35
2018-02-12T01:07:32.948Z,999.36
2018-02-12T01:07:59.048Z,999.39
2018-02-12T01:08:25.150Z,999.34
2018-02-12T01:08:51.251Z,999.39
2018-02-12T01:09:17.345Z,999.35
2018-02-12T01:09:43.448Z,999.39
2018-02-12T01:10:09.546Z,999.41
2018-02-12T01:10:35.651Z,999.41
2018-02-12T01:11:01.751Z,999.36
2018-02-12T01:11:27.845Z,999.41
2018-02-12T01:11:53.948Z,999.45
2018-02-12T01:12:20.047Z,999.41
2018-02-12T01:12:46.144Z,999.44
2018-02-12T01:13:12.243Z,999.44
2018-02-12T01:13:38.344Z,999.37
2018-02-12T01:14:04.446Z,999.46
2018-02-12T01:14:30.544Z,999.42
2018-02-12T01:14:56.646Z,999.43
2018-02-12T01:15:22.749Z,999.42
2018-02-12T01:15:48.844Z,999.46
2018-02-12T01:16:14.943Z,999.42
2018-02-12T01:16:41.042Z,999.47
2018-02-12T01:17:07.148Z,999.42
2018-02-12T01:17:33.271Z,999.44
2018-02-12T01:17:59.369Z,999.47
2018-02-12T01:18:25.468Z,999.49
2018-02-12T01:18:51.570Z,999.44
2018-02-12T01:19:17.677Z,999.42
2018-02-12T01:19:43.768Z,999.48
2018-02-12T01:20:09.868Z,999.49
2018-02-12T01:20:35.974Z,999.49
2018-02-12T01:21:02.068Z,999.49
2018-02-12T01:21:28.166Z,999.51
2018-02-12T01:21:54.269Z,999.49
2018-02-12T01:22:20.379Z,999.49
2018-02-12T01:22:46.490Z,999.47
2018-02-12T01:23:12.590Z,999.51
2018-02-12T01:23:38.685Z,999.47
2018-02-12T01:24:04.783Z,999.56
2018-02-12T01:24:30.888Z,999.52
2018-02-12T01:24:56.990Z,999.5
2018-02-12T01:25:23.084Z,999.44
2018-02-12T01:25:49.239Z,999.49
2018-02-12T01:26:15.339Z,999.52
2018-02-12T01:26:41.435Z,999.5
2018-02-12T01:27:07.537Z,999.51
2018-02-12T01:27:33.632Z,999.44
2018-02-12T01:27:59.731Z,999.51
2018-02-12T01:28:25.832Z,999.48
2018-02-12T01:28:51.934Z,999.51
2018-02-12T01:29:18.032Z,999.47
2018-02-12T01:29:44.137Z,999.47
2018-02-12T01:30:10.252Z,999.47
2018-02-12T01:30:36.349Z,999.47
2018-02-12T01:31:02.454Z,999.59
2018-02-12T01:31:28.550Z,999.54
2018-02-12T01:31:54.653Z,999.56
2018-02-12T01:32:20.753Z,999.52
2018-02-12T01:32:46.853Z,999.54
2018-02-12T01:33:12.957Z,999.54
2018-02-12T01:33:39.052Z,999.55
2018-02-12T01:34:05.154Z,999.51
2018-02-12T01:34:31.254Z,999.53
2018-02-12T01:34:57.355Z,999.49
2018-02-12T01:35:23.453Z,999.54
2018-02-12T01:35:49.576Z,999.58
2018-02-12T01:36:15.689Z,999.55
2018-02-12T01:36:41.793Z,999.59
2018-02-12T01:37:07.895Z,999.57
2018-02-12T01:37:33.993Z,999.66
2018-02-12T01:38:00.097Z,999.61
2018-02-12T01:38:26.194Z,999.59
2018-02-12T01:38:52.297Z,999.63
2018-02-12T01:39:18.397Z,999.64
2018-02-12T01:39:44.502Z,999.61
2018-02-12T01:40:10.634Z,999.57
2018-02-12T01:40:36.739Z,999.6
2018-02-12T01:41:02.830Z,999.56
2018-02-12T01:41:28.927Z,999.6
2018-02-12T01:41:55.032Z,999.64
2018-02-12T01:42:21.132Z,999.62
2018-02-12T01:42:47.258Z,999.6
2018-02-12T01:43:13.354Z,999.66
2018-02-12T01:43:39.457Z,999.56
2018-02-12T01:44:05.565Z,999.67
2018-02-12T01:44:31.652Z,999.65
2018-02-12T01:44:57.751Z,999.66
2018-02-12T01:45:23.889Z,999.67
2018-02-12T01:45:49.970Z,999.64
2018-02-12T01:46:16.069Z,999.69
2018-02-12T01:46:42.174Z,999.68
2018-02-12T01:47:08.266Z,999.67
2018-02-12T01:47:34.370Z,999.58
2018-02-12T01:48:00.474Z,999.66
2018-02-12T01:48:26.570Z,999.64
2018-02-12T01:48:52.686Z,999.65
2018-02-12T01:49:18.780Z,999.63
2018-02-12T01:49:44.886Z,999.63
2018-02-12T01:50:10.992Z,999.63
2018-02-12T01:50:37.109Z,999.68
2018-02-12T01:51:03.215Z,999.64
2018-02-12T01:51:29.312Z,999.69
2018-02-12T01:51:55.416Z,999.66
2018-02-12T01:52:21.565Z,999.65
2018-02-12T01:52:47.611Z,999.69
2018-02-12T01:53:13.713Z,999.73
2018-02-12T01:53:39.811Z,999.71
2018-02-12T01:54:05.915Z,999.73
2018-02-12T01:54:32.009Z,999.71
2018-02-12T01:54:58.110Z,999.69
2018-02-12T01:55:24.229Z,999.69
2018-02-12T01:55:50.339Z,999.75
2018-02-12T01:56:16.450Z,999.71
2018-02-12T01:56:42.549Z,999.7
2018-02-12T01:57:08.652Z,999.74
2018-02-12T01:57:34.750Z,999.75
2018-02-12T01:58:00.855Z,999.74
2018-02-12T01:58:26.952Z,999.76
2018-02-12T01:58:53.056Z,999.75
2018-02-12T01:59:19.156Z,999.75
2018-02-12T01:59:45.273Z,999.77
2018-02-12T02:00:11.366Z,999.72
2018-02-12T02:00:37.468Z,999.75
2018-02-12T02:01:03.565Z,999.74
2018-02-12T02:01:29.661Z,999.81
2018-02-12T02:01:55.766Z,999.81
2018-02-12T02:02:21.882Z,999.8
2018-02-12T02:02:48.014Z,999.82
2018-02-12T02:03:14.115Z,999.8
2018-02-12T02:03:40.220Z,999.77
2018-02-12T02:04:06.312Z,999.8
2018-02-12T02:04:32.414Z,999.78
2018-02-12T02:04:58.521Z,999.71
2018-02-12T02:05:24.618Z,999.76
2018-02-12T02:05:50.717Z,999.81
2018-02-12T02:06:16.821Z,999.81
2018-02-12T02:06:42.913Z,999.79
2018-02-12T02:07:09.008Z,999.79
2018-02-12T02:07:35.128Z,999.8
2018-02-12T02:08:01.229Z,999.8
2018-02-12T02:08:27.336Z,999.8
2018-02-12T02:08:53.437Z,999.81
2018-02-12T02:09:19.531Z,999.83
2018-02-12T02:09:45.632Z,999.83
2018-02-12T02:10:11.729Z,999.82
2018-02-12T02:10:37.828Z,999.83
2018-02-12T02:11:03.930Z,999.81
2018-02-12T02:11:30.032Z,999.8
2018-02-12T02:11:56.135Z,999.83
2018-02-12T02:12:22.229Z,999.84
2018-02-12T02:12:48.333Z,999.87
2018-02-12T02:13:14.434Z,999.83
2018-02-12T02:13:40.531Z,999.79
2018-02-12T02:14:06.627Z,999.82
2018-02-12T02:14:32.729Z,999.8
2018-02-12T02:14:58.832Z,999.84
2018-02-12T02:15:24.942Z,999.78
2018-02-12T02:15:51.045Z,999.8
2018-02-12T02:16:17.143Z,999.83
2018-02-12T02:16:43.242Z,999.8
2018-02-12T02:17:09.341Z,999.79
2018-02-12T02:17:35.438Z,999.82
2018-02-12T02:18:01.542Z,999.82
2018-02-12T02:18:27.643Z,999.84
2018-02-12T02:18:53.762Z,999.82
2018-02-12T02:19:19.858Z,999.8
2018-02-12T02:19:45.961Z,999.81
2018-02-12T02:20:12.066Z,999.82
2018-02-12T02:20:38.157Z,999.82
2018-02-12T02:21:04.256Z,999.84
2018-02-12T02:21:30.377Z,999.85
2018-02-12T02:21:56.480Z,999.88
2018-02-12T02:22:22.604Z,999.92
2018-02-12T02:22:48.721Z,999.87
2018-02-12T02:23:14.831Z,999.88
2018-02-12T02:23:40.934Z,999.9
2018-02-12T02:24:07.035Z,999.92
2018-02-12T02:24:33.134Z,999.89
2018-02-12T02:24:59.235Z,999.88
2018-02-12T02:25:25.341Z,999.92
2018-02-12T02:25:51.430Z,999.91
2018-02-12T02:26:17.531Z,999.92
2018-02-12T02:26:43.625Z,999.92
2018-02-12T02:27:09.728Z,999.92
2018-02-12T02:27:35.832Z,1000.04
2018-02-12T02:28:01.929Z,999.96
2018-02-12T02:28:28.051Z,999.98
2018-02-12T02:28:54.153Z,999.94
2018-02-12T02:29:20.251Z,999.96
2018-02-12T02:29:46.361Z,1000
2018-02-12T02:30:12.462Z,999.97
2018-02-12T02:30:38.566Z,999.95
2018-02-12T02:31:04.683Z,1000.01
2018-02-12T02:31:30.798Z,999.97
2018-02-12T02:31:56.898Z,1000.02
2018-02-12T02:32:22.988Z,999.95
2018-02-12T02:32:49.091Z,999.98
2018-02-12T02:33:15.194Z,999.93
2018-02-12T02:33:41.291Z,999.95
2018-02-12T02:34:07.391Z,999.93
2018-02-12T02:34:33.491Z,999.94
2018-02-12T02:34:59.581Z,999.98
2018-02-12T02:35:25.682Z,999.98
2018-02-12T02:35:51.789Z,999.95
2018-02-12T02:36:17.884Z,999.95
2018-02-12T02:36:43.989Z,999.91
2018-02-12T02:37:10.097Z,999.92
2018-02-12T02:37:36.208Z,999.97
2018-02-12T02:38:02.312Z,999.92
2018-02-12T02:38:28.430Z,999.95
2018-02-12T02:38:54.535Z,999.97
2018-02-12T02:39:20.636Z,999.93
2018-02-12T02:39:46.734Z,999.95
2018-02-12T02:40:12.842Z,999.97
2018-02-12T02:40:38.958Z,999.99
2018-02-12T02:41:05.060Z,1000
2018-02-12T02:41:31.159Z,999.98
2018-02-12T02:41:57.255Z,1000.01
2018-02-12T02:42:23.841Z,999.98
2018-02-12T02:42:50.174Z,999.92
2018-02-12T02:43:16.472Z,1000.04
2018-02-12T02:43:42.916Z,999.98
2018-02-12T02:44:10.053Z,1000.03
2018-02-12T02:44:36.578Z,1000.02
2018-02-12T02:45:03.014Z,999.98
2018-02-12T02:45:29.138Z,999.98
2018-02-12T02:45:55.473Z,1000.02
2018-02-12T02:46:21.665Z,999.96
2018-02-12T02:46:48.506Z,999.97
2018-02-12T02:47:14.665Z,999.98
2018-02-12T02:47:41.061Z,999.96
2018-02-12T02:48:07.606Z,1000
2018-02-12T02:48:33.661Z,999.94
2018-02-12T02:48:59.822Z,1000
2018-02-12T02:49:26.060Z,999.97
2018-02-12T02:49:52.232Z,999.97
2018-02-12T02:50:18.367Z,999.99
2018-02-12T02:50:44.584Z,999.95
2018-02-12T02:51:10.658Z,999.9
2018-02-12T02:51:37.151Z,999.98
2018-02-12T02:52:03.318Z,999.95
2018-02-12T02:52:29.424Z,999.92
2018-02-12T02:52:55.635Z,999.96
2018-02-12T02:53:22.013Z,999.97
2018-02-12T02:53:48.380Z,999.94
2018-02-12T02:54:14.899Z,999.97
2018-02-12T02:54:41.129Z,999.97
2018-02-12T02:55:07.733Z,999.97
2018-02-12T02:55:33.999Z,1000.01
2018-02-12T02:56:00.300Z,1000.01
2018-02-12T02:56:26.611Z,1000.01
2018-02-12T02:56:52.714Z,1000.03
2018-02-12T02:57:19.360Z,1000.03
2018-02-12T02:57:46.189Z,1000.04
2018-02-12T02:58:12.299Z,1000.06
2018-02-12T02:58:38.613Z,1000.05
2018-02-12T02:59:04.750Z,1000.04
2018-02-12T02:59:31.246Z,1000.09
2018-02-12T02:59:57.614Z,1000.06
2018-02-12T03:00:23.805Z,1000.06
2018-02-12T03:00:50.246Z,1000.06
2018-02-12T03:01:16.369Z,1000.09
2018-02-12T03:01:42.847Z,1000.07
2018-02-12T03:02:09.312Z,1000.11
2018-02-12T03:02:35.595Z,1000.09
2018-02-12T03:03:01.744Z,1000.14
2018-02-12T03:03:27.840Z,1000.15
2018-02-12T03:03:54.234Z,1000.16
2018-02-12T03:04:20.757Z,1000.06
2018-02-12T03:04:46.816Z,1000.18
2018-02-12T03:05:13.057Z,1000.17
2018-02-12T03:05:39.367Z,1000.17
2018-02-12T03:06:05.505Z,1000.18
2018-02-12T03:06:31.958Z,1000.19
2018-02-12T03:06:58.261Z,1000.2
2018-02-12T03:07:24.493Z,1000.2
2018-02-12T03:07:50.705Z,1000.17
2018-02-12T03:08:16.869Z,1000.25
2018-02-12T03:08:43.262Z,1000.25
2018-02-12T03:09:09.614Z,1000.24
2018-02-12T03:09:35.949Z,1000.21
2018-02-12T03:10:02.316Z,1000.22
2018-02-12T03:10:28.433Z,1000.2
2018-02-12T03:10:54.527Z,1000.26
2018-02-12T03:11:20.836Z,1000.24
2018-02-12T03:11:46.965Z,1000.23
2018-02-12T03:12:13.311Z,1000.23
2018-02-12T03:12:39.403Z,1000.25
2018-02-12T03:13:05.507Z,1000.3
2018-02-12T03:13:31.690Z,1000.27
2018-02-12T03:13:57.972Z,1000.3
2018-02-12T03:14:24.104Z,1000.31
2018-02-12T03:14:50.208Z,1000.33
2018-02-12T03:15:16.349Z,1000.33
2018-02-12T03:15:42.639Z,1000.34
2018-02-12T03:16:08.708Z,1000.35
2018-02-12T03:16:35.252Z,1000.37
2018-02-12T03:17:01.628Z,1000.37
2018-02-12T03:17:27.792Z,1000.36
2018-02-12T03:17:54.056Z,1000.34
2018-02-12T03:18:20.770Z,1000.33
2018-02-12T03:18:47.298Z,1000.4
2018-02-12T03:19:13.614Z,1000.39
2018-02-12T03:19:39.807Z,1000.37
2018-02-12T03:20:05.938Z,1000.41
2018-02-12T03:20:32.204Z,1000.39
2018-02-12T03:20:58.309Z,1000.39
2018-02-12T03:21:24.500Z,1000.46
2018-02-12T03:21:50.897Z,1000.4
2018-02-12T03:22:17.287Z,1000.41
2018-02-12T03:22:43.945Z,1000.43
2018-02-12T03:23:10.043Z,1000.46
2018-02-12T03:23:36.151Z,1000.43
2018-02-12T03:24:02.253Z,1000.49
2018-02-12T03:24:28.350Z,1000.5
2018-02-12T03:24:54.450Z,1000.52
2018-02-12T03:25:20.543Z,1000.43
2018-02-12T03:25:46.649Z,1000.47
2018-02-12T03:26:12.748Z,1000.43
2018-02-12T03:26:38.869Z,1000.51
2018-02-12T03:27:04.962Z,1000.52
2018-02-12T03:27:31.069Z,1000.53
2018-02-12T03:27:57.180Z,1000.53
2018-02-12T03:28:23.283Z,1000.54
2018-02-12T03:28:49.374Z,1000.54
2018-02-12T03:29:15.494Z,1000.51
2018-02-12T03:29:41.588Z,1000.54
2018-02-12T03:30:07.692Z,1000.53
2018-02-12T03:30:33.793Z,1000.5
2018-02-12T03:30:59.885Z,1000.53
2018-02-12T03:31:25.982Z,1000.52
2018-02-12T03:31:52.082Z,1000.57
2018-02-12T03:32:18.184Z,1000.54
2018-02-12T03:32:44.283Z,1000.56
2018-02-12T03:33:10.391Z,1000.54
2018-02-12T03:33:36.501Z,1000.54
2018-02-12T03:34:02.611Z,1000.57
2018-02-12T03:34:28.714Z,1000.58
2018-02-12T03:34:54.808Z,1000.51
2018-02-12T03:35:20.939Z,1000.58
2018-02-12T03:35:47.038Z,1000.58
2018-02-12T03:36:13.145Z,1000.54
2018-02-12T03:36:39.243Z,1000.61
2018-02-12T03:37:05.340Z,1000.55
2018-02-12T03:37:31.439Z,1000.64
2018-02-12T03:37:57.534Z,1000.59
2018-02-12T03:38:23.634Z,1000.63
2018-02-12T03:38:49.750Z,1000.63
2018-02-12T03:39:15.856Z,1000.58
2018-02-12T03:39:41.955Z,1000.61
2018-02-12T03:40:08.052Z,1000.62
2018-02-12T03:40:34.155Z,1000.58
2018-02-12T03:41:00.251Z,1000.58
2018-02-12T03:41:26.353Z,1000.61
2018-02-12T03:41:52.469Z,1000.6
2018-02-12T03:42:18.567Z,1000.6
2018-02-12T03:42:44.668Z,1000.57
2018-02-12T03:43:10.769Z,1000.58
2018-02-12T03:43:36.865Z,1000.61
2018-02-12T03:44:02.968Z,1000.58
2018-02-12T03:44:29.062Z,1000.65
2018-02-12T03:44:55.159Z,1000.62
2018-02-12T03:45:21.261Z,1000.65
2018-02-12T03:45:47.365Z,1000.68
2018-02-12T03:46:13.459Z,1000.68
2018-02-12T03:46:39.562Z,1000.72
2018-02-12T03:47:05.662Z,1000.7
2018-02-12T03:47:31.771Z,1000.72
2018-02-12T03:47:57.863Z,1000.71
2018-02-12T03:48:23.964Z,1000.72
2018-02-12T03:48:50.058Z,1000.7
2018-02-12T03:49:16.173Z,1000.71
2018-02-12T03:49:42.290Z,1000.72
2018-02-12T03:50:08.389Z,1000.73
2018-02-12T03:50:34.514Z,1000.77
2018-02-12T03:51:00.611Z,1000.72
2018-02-12T03:51:26.708Z,1000.74
2018-02-12T03:51:52.804Z,1000.72
2018-02-12T03:52:18.906Z,1000.74
2018-02-12T03:52:45.001Z,1000.75
2018-02-12T03:53:11.105Z,1000.73
2018-02-12T03:53:37.207Z,1000.77
2018-02-12T03:54:03.309Z,1000.69
2018-02-12T03:54:29.413Z,1000.79
2018-02-12T03:54:55.506Z,1000.8
2018-02-12T03:55:21.604Z,1000.75
2018-02-12T03:55:47.698Z,1000.72
2018-02-12T03:56:13.792Z,1000.78
2018-02-12T03:56:39.902Z,1000.75
2018-02-12T03:57:06.003Z,1000.77
2018-02-12T03:57:32.135Z,1000.78
2018-02-12T03:57:58.235Z,1000.79
2018-02-12T03:58:24.337Z,1000.76
2018-02-12T03:58:50.431Z,1000.74
2018-02-12T03:59:16.532Z,1000.77
2018-02-12T03:59:42.635Z,1000.8
2018-02-12T04:00:08.730Z,1000.78
2018-02-12T04:00:34.832Z,1000.82
2018-02-12T04:01:00.928Z,1000.8
2018-02-12T04:01:27.026Z,1000.76
2018-02-12T04:01:53.128Z,1000.8
2018-02-12T04:02:19.227Z,1000.82
2018-02-12T04:02:45.346Z,1000.81
2018-02-12T04:03:11.442Z,1000.75
2018-02-12T04:03:37.545Z,1000.82
2018-02-12T04:04:03.643Z,1000.82
2018-02-12T04:04:29.759Z,1000.83
2018-02-12T04:04:55.854Z,1000.83
2018-02-12T04:05:21.977Z,1000.81
2018-02-12T04:05:48.081Z,1000.87
2018-02-12T04:06:14.180Z,1000.8
2018-02-12T04:06:40.269Z,1000.81
2018-02-12T04:07:06.366Z,1000.84
2018-02-12T04:07:32.466Z,1000.85
2018-02-12T04:07:58.567Z,1000.82
2018-02-12T04:08:24.671Z,1000.9
2018-02-12T04:08:50.783Z,1000.82
2018-02-12T04:09:16.895Z,1000.88
2018-02-12T04:09:43.021Z,1000.83
2018-02-12T04:10:09.119Z,1000.84
2018-02-12T04:10:35.222Z,1000.85
2018-02-12T04:11:01.312Z,1000.86
2018-02-12T04:11:27.409Z,1000.88
2018-02-12T04:11:53.531Z,1000.82
2018-02-12T04:12:19.628Z,1000.89
2018-02-12T04:12:45.740Z,1000.96
2018-02-12T04:13:11.842Z,1000.92
2018-02-12T04:13:37.951Z,1000.87
2018-02-12T04:14:04.047Z,1000.88
2018-02-12T04:14:30.145Z,1000.91
2018-02-12T04:14:56.263Z,1000.93
2018-02-12T04:15:22.379Z,1000.91
2018-02-12T04:15:48.481Z,1000.96
2018-02-12T04:16:14.588Z,1000.96
2018-02-12T04:16:40.702Z,1000.95
2018-02-12T04:17:06.801Z,1000.98
2018-02-12T04:17:32.904Z,1000.98
2018-02-12T04:17:59.016Z,1001.03
2018-02-12T04:18:25.119Z,1001.01
2018-02-12T04:18:51.219Z,1001.01
2018-02-12T04:19:17.321Z,1001
2018-02-12T04:19:43.422Z,1001
2018-02-12T04:20:09.519Z,1001.03
2018-02-12T04:20:35.620Z,1001.07
2018-02-12T04:21:01.717Z,1001.05
2018-02-12T04:21:27.821Z,1001.1
2018-02-12T04:21:53.917Z,1001.04
2018-02-12T04:22:20.014Z,1001.08
2018-02-12T04:22:46.117Z,1001.02
2018-02-12T04:23:12.219Z,1001.08
2018-02-12T04:23:38.331Z,1001.09
2018-02-12T04:24:04.432Z,1001.03
2018-02-12T04:24:30.534Z,1001.08
2018-02-12T04:24:56.626Z,1001.14
2018-02-12T04:25:22.726Z,1001.14
2018-02-12T04:25:48.849Z,1001.15
2018-02-12T04:26:14.949Z,1001.15
2018-02-12T04:26:41.040Z,1001.15
2018-02-12T04:27:07.161Z,1001.14
2018-02-12T04:27:33.261Z,1001.14
2018-02-12T04:27:59.363Z,1001.14
2018-02-12T04:28:25.463Z,1001.14
2018-02-12T04:28:51.567Z,1001.13
2018-02-12T04:29:17.666Z,1001.14
2018-02-12T04:29:43.768Z,1001.12
2018-02-12T04:30:09.864Z,1001.08
2018-02-12T04:30:35.974Z,1001.08
2018-02-12T04:31:02.075Z,1001.14
2018-02-12T04:31:28.173Z,1001.1
2018-02-12T04:31:54.265Z,1001.07
2018-02-12T04:32:20.368Z,1001.04
2018-02-12T04:32:46.469Z,1001.1
2018-02-12T04:33:12.570Z,1001.1
2018-02-12T04:33:38.667Z,1001.09
2018-02-12T04:34:04.763Z,1001.12
2018-02-12T04:34:30.860Z,1001.1
2018-02-12T04:34:56.962Z,1001.13
2018-02-12T04:35:23.078Z,1001.1
2018-02-12T04:35:49.172Z,1001.09
2018-02-12T04:36:15.266Z,1001.09
2018-02-12T04:36:41.368Z,1001.13
2018-02-12T04:37:07.487Z,1001.12
2018-02-12T04:37:33.593Z,1001.09
2018-02-12T04:37:59.704Z,1001.13
2018-02-12T04:38:25.798Z,1001.11
2018-02-12T04:38:51.900Z,1001.14
2018-02-12T04:39:17.993Z,1001.07
2018-02-12T04:39:44.092Z,1001.07
2018-02-12T04:40:10.197Z,1001.05
2018-02-12T04:40:36.312Z,1001.06
2018-02-12T04:41:02.410Z,1001.04
2018-02-12T04:41:28.512Z,1001.08
2018-02-12T04:41:54.616Z,1001.09
2018-02-12T04:42:20.709Z,1001.13
2018-02-12T04:42:46.807Z,1001.11
2018-02-12T04:43:12.920Z,1001.1
2018-02-12T04:43:39.024Z,1001.14
2018-02-12T04:44:05.136Z,1001.12
2018-02-12T04:44:31.239Z,1001.13
2018-02-12T04:44:57.335Z,1001.15
2018-02-12T04:45:23.439Z,1001.16
2018-02-12T04:45:49.539Z,1001.16
2018-02-12T04:46:15.641Z,1001.21
2018-02-12T04:46:41.735Z,1001.24
2018-02-12T04:47:07.874Z,1001.27
2018-02-12T04:47:33.948Z,1001.21
2018-02-12T04:48:00.048Z,1001.26
2018-02-12T04:48:26.149Z,1001.2
2018-02-12T04:48:52.269Z,1001.2
2018-02-12T04:49:18.368Z,1001.24
2018-02-12T04:49:44.473Z,1001.26
2018-02-12T04:50:10.584Z,1001.2
2018-02-12T04:50:36.685Z,1001.27
2018-02-12T04:51:02.782Z,1001.38
2018-02-12T04:51:28.885Z,1001.29
2018-02-12T04:51:54.980Z,1001.32
2018-02-12T04:52:21.077Z,1001.25
2018-02-12T04:52:47.170Z,1001.29
2018-02-12T04:53:13.274Z,1001.35
2018-02-12T04:53:39.376Z,1001.3
2018-02-12T04:54:05.480Z,1001.31
2018-02-12T04:54:31.576Z,1001.33
2018-02-12T04:54:57.691Z,1001.28
2018-02-12T04:55:23.783Z,1001.36
2018-02-12T04:55:49.885Z,1001.3
2018-02-12T04:56:15.978Z,1001.32
2018-02-12T04:56:42.086Z,1001.31
2018-02-12T04:57:08.186Z,1001.34
2018-02-12T04:57:34.281Z,1001.33
2018-02-12T04:58:00.380Z,1001.32
2018-02-12T04:58:26.486Z,1001.36
2018-02-12T04:58:52.580Z,1001.39
2018-02-12T04:59:18.681Z,1001.37
2018-02-12T04:59:44.782Z,1001.41
2018-02-12T05:00:10.878Z,1001.41
2018-02-12T05:00:36.980Z,1001.43
2018-02-12T05:01:03.077Z,1001.42
2018-02-12T05:01:29.191Z,1001.48
2018-02-12T05:01:55.311Z,1001.48
2018-02-12T05:02:21.410Z,1001.47
2018-02-12T05:02:47.531Z,1001.47
2018-02-12T05:03:13.633Z,1001.49
2018-02-12T05:03:39.729Z,1001.49
2018-02-12T05:04:05.828Z,1001.51
2018-02-12T05:04:31.923Z,1001.49
2018-02-12T05:04:58.028Z,1001.5
2018-02-12T05:05:24.123Z,1001.52
2018-02-12T05:05:50.220Z,1001.53
2018-02-12T05:06:16.325Z,1001.53
2018-02-12T05:06:42.428Z,1001.52
2018-02-12T05:07:08.519Z,1001.57
2018-02-12T05:07:34.617Z,1001.52
2018-02-12T05:08:00.737Z,1001.52
2018-02-12T05:08:26.838Z,1001.54
2018-02-12T05:08:52.930Z,1001.52
2018-02-12T05:09:19.024Z,1001.54
2018-02-12T05:09:45.127Z,1001.55
2018-02-12T05:10:11.225Z,1001.54
2018-02-12T05:10:37.324Z,1001.55
2018-02-12T05:11:03.428Z,1001.58
2018-02-12T05:11:29.520Z,1001.58
2018-02-12T05:11:55.619Z,1001.54
2018-02-12T05:12:21.721Z,1001.53
2018-02-12T05:12:47.829Z,1001.56
2018-02-12T05:13:13.926Z,1001.62
2018-02-12T05:13:40.044Z,1001.61
2018-02-12T05:14:06.143Z,1001.59
2018-02-12T05:14:32.245Z,1001.6
2018-02-12T05:14:58.342Z,1001.59
2018-02-12T05:15:24.463Z,1001.61
2018-02-12T05:15:50.563Z,1001.63
2018-02-12T05:16:16.660Z,1001.6
2018-02-12T05:16:42.753Z,1001.61
2018-02-12T05:17:08.854Z,1001.64
2018-02-12T05:17:34.956Z,1001.61
2018-02-12T05:18:01.055Z,1001.62
2018-02-12T05:18:27.151Z,1001.61
2018-02-12T05:18:53.254Z,1001.61
2018-02-12T05:19:19.350Z,1001.58
2018-02-12T05:19:45.449Z,1001.59
2018-02-12T05:20:11.556Z,1001.62
2018-02-12T05:20:37.653Z,1001.61
2018-02-12T05:21:03.750Z,1001.63
2018-02-12T05:21:29.848Z,1001.61
2018-02-12T05:21:55.952Z,1001.63
2018-02-12T05:22:22.053Z,1001.63